createdAt,value
2019-03-23T00:01:08.824Z,91.20
2019-03-23T00:05:20.418Z,91.10
2019-03-23T00:09:31.681Z,91.00
2019-03-23T00:13:41.991Z,90.80
2019-03-23T00:17:53.333Z,90.50
2019-03-23T00:22:04.734Z,90.30
2019-03-23T00:26:15.835Z,90.30
2019-03-23T00:30:27.014Z,90.30
2019-03-23T00:34:38.130Z,90.20
2019-03-23T00:38:49.259Z,90.00
2019-03-23T00:43:00.466Z,90.00
2019-03-23T00:47:11.628Z,89.70
2019-03-23T00:51:22.911Z,89.90
2019-03-23T00:55:34.084Z,90.00
2019-03-23T00:59:45.133Z,90.20
2019-03-23T01:03:56.362Z,90.10
2019-03-23T01:08:07.602Z,90.00
2019-03-23T01:12:18.717Z,89.70
2019-03-23T01:16:30.084Z,89.60
2019-03-23T01:20:49.365Z,89.60
2019-03-23T01:24:53.977Z,89.80
2019-03-23T01:29:05.178Z,90.00
2019-03-23T01:33:16.296Z,90.10
2019-03-23T01:37:27.452Z,90.00
2019-03-23T01:41:38.574Z,89.80
2019-03-23T01:45:49.682Z,89.80
2019-03-23T01:50:01.391Z,89.60
2019-03-23T01:54:12.657Z,89.60
2019-03-23T01:58:23.994Z,89.60
2019-03-23T02:02:35.171Z,89.50
2019-03-23T02:06:46.499Z,89.50
2019-03-23T02:10:57.758Z,89.50
2019-03-23T02:15:10.798Z,89.30
2019-03-23T02:19:21.937Z,89.00
2019-03-23T02:23:33.011Z,88.60
2019-03-23T02:27:44.204Z,88.40
2019-03-23T02:31:55.048Z,88.60
2019-03-23T02:36:05.730Z,88.80
2019-03-23T02:40:16.914Z,88.90
2019-03-23T02:44:28.237Z,89.20
2019-03-23T02:48:39.058Z,89.40
2019-03-23T02:52:50.252Z,89.60
2019-03-23T02:57:01.315Z,89.60
2019-03-23T03:01:12.580Z,89.70
2019-03-23T03:05:23.582Z,89.90
2019-03-23T03:09:35.049Z,89.90
2019-03-23T03:13:46.304Z,90.00
2019-03-23T03:17:57.502Z,90.10
2019-03-23T03:22:08.708Z,90.00
2019-03-23T03:26:19.998Z,90.10
2019-03-23T03:30:31.247Z,90.10
2019-03-23T03:34:42.410Z,90.10
2019-03-23T03:38:53.631Z,90.10
2019-03-23T03:43:05.014Z,90.10
2019-03-23T03:47:15.107Z,90.20
2019-03-23T03:51:26.267Z,90.20
2019-03-23T03:55:38.184Z,90.20
2019-03-23T03:59:49.648Z,90.20
2019-03-23T04:04:00.477Z,90.20
2019-03-23T04:08:12.249Z,90.20
2019-03-23T04:12:23.610Z,90.10
2019-03-23T04:16:34.852Z,90.50
2019-03-23T04:20:45.691Z,90.10
2019-03-23T04:24:58.310Z,90.10
2019-03-23T04:29:09.594Z,90.10
2019-03-23T04:33:20.282Z,90.10
2019-03-23T04:37:31.639Z,90.10
2019-03-23T04:41:43.059Z,90.10
2019-03-23T04:45:54.266Z,90.20
2019-03-23T04:50:07.459Z,90.30
2019-03-23T04:54:18.639Z,90.30
2019-03-23T04:58:29.992Z,90.30
2019-03-23T05:02:41.341Z,90.50
2019-03-23T05:06:52.546Z,90.60
2019-03-23T05:11:03.830Z,90.70
2019-03-23T05:15:15.369Z,90.80
2019-03-23T05:19:26.821Z,90.80
2019-03-23T05:23:39.804Z,90.90
2019-03-23T05:27:50.479Z,90.40
2019-03-23T05:32:01.580Z,89.40
2019-03-23T05:36:15.221Z,88.20
2019-03-23T05:40:25.233Z,87.50
2019-03-23T05:44:36.544Z,86.50
2019-03-23T05:48:47.670Z,87.10
2019-03-23T05:52:58.871Z,86.50
2019-03-23T05:57:10.154Z,87.00
2019-03-23T06:01:21.469Z,87.80
2019-03-23T06:05:32.683Z,88.20
2019-03-23T06:09:43.368Z,88.60
2019-03-23T06:13:54.997Z,88.50
2019-03-23T06:18:06.165Z,88.40
2019-03-23T06:22:16.354Z,88.30
2019-03-23T06:26:28.175Z,87.90
2019-03-23T06:30:40.098Z,87.50
2019-03-23T06:34:52.017Z,86.90
2019-03-23T06:39:05.739Z,86.10
2019-03-23T06:43:16.816Z,83.30
2019-03-23T06:47:28.016Z,78.70
2019-03-23T06:51:39.412Z,75.80
2019-03-23T06:55:50.514Z,72.30
2019-03-23T07:00:01.531Z,70.80
2019-03-23T07:04:12.690Z,68.80
2019-03-23T07:08:32.023Z,67.90
2019-03-23T07:12:37.030Z,66.70
2019-03-23T07:16:48.128Z,65.70
2019-03-23T07:20:59.225Z,64.20
2019-03-23T07:25:13.759Z,63.20
2019-03-23T07:29:24.667Z,62.80
2019-03-23T07:33:36.069Z,62.50
2019-03-23T07:37:47.331Z,62.30
2019-03-23T07:41:58.684Z,61.80
2019-03-23T07:46:10.105Z,60.70
2019-03-23T07:50:21.438Z,59.50
2019-03-23T07:54:32.916Z,59.70
2019-03-23T07:58:44.288Z,59.20
2019-03-23T08:02:55.679Z,58.20
2019-03-23T08:07:07.129Z,58.10
2019-03-23T08:11:18.470Z,57.50
2019-03-23T08:15:30.055Z,56.70
2019-03-23T08:19:41.385Z,56.50
2019-03-23T08:23:54.271Z,55.60
2019-03-23T08:28:04.650Z,54.60
2019-03-23T08:32:15.824Z,54.20
2019-03-23T08:36:26.934Z,54.50
2019-03-23T08:40:39.280Z,54.90
2019-03-23T08:44:50.743Z,54.80
2019-03-23T08:49:01.995Z,53.70
2019-03-23T08:53:13.210Z,53.10
2019-03-23T08:57:24.343Z,52.80
2019-03-23T09:01:36.881Z,51.90
2019-03-23T09:05:47.906Z,51.50
2019-03-23T09:09:59.630Z,50.60
2019-03-23T09:14:10.787Z,50.00
2019-03-23T09:18:21.772Z,48.60
2019-03-23T09:22:32.920Z,48.90
2019-03-23T09:26:44.797Z,48.30
2019-03-23T09:30:55.922Z,48.00
2019-03-23T09:35:07.329Z,47.20
2019-03-23T09:39:18.891Z,47.20
2019-03-23T09:43:30.276Z,45.70
2019-03-23T09:47:41.372Z,44.60
2019-03-23T09:51:52.614Z,44.10
2019-03-23T09:56:03.798Z,43.10
2019-03-23T10:00:15.345Z,42.00
2019-03-23T10:04:28.181Z,42.00
2019-03-23T10:08:39.866Z,42.50
2019-03-23T10:12:51.026Z,41.80
2019-03-23T10:17:02.263Z,41.20
2019-03-23T10:21:13.447Z,41.20
2019-03-23T10:25:26.708Z,40.60
2019-03-23T10:29:37.766Z,40.80
2019-03-23T10:33:48.835Z,41.20
2019-03-23T10:38:00.389Z,41.40
2019-03-23T10:42:11.630Z,41.00
2019-03-23T10:46:25.081Z,41.00
2019-03-23T10:50:35.694Z,40.40
2019-03-23T10:54:47.103Z,41.00
2019-03-23T10:58:58.255Z,40.70
2019-03-23T11:03:09.515Z,40.70
2019-03-23T11:07:20.872Z,41.40
2019-03-23T11:11:33.846Z,41.40
2019-03-23T11:15:45.425Z,40.30
2019-03-23T11:19:58.440Z,40.20
2019-03-23T11:24:09.495Z,39.30
2019-03-23T11:28:22.278Z,38.70
2019-03-23T11:32:34.096Z,38.60
2019-03-23T11:36:45.243Z,37.10
2019-03-23T11:40:56.357Z,34.80
2019-03-23T11:45:08.292Z,36.20
2019-03-23T11:49:19.321Z,37.80
2019-03-23T11:53:30.339Z,36.60
2019-03-23T11:57:41.402Z,35.30
2019-03-23T12:01:53.913Z,33.90
2019-03-23T12:06:05.020Z,34.00
2019-03-23T12:10:17.779Z,33.30
2019-03-23T12:14:29.233Z,32.50
2019-03-23T12:18:40.457Z,32.50
2019-03-23T12:22:51.470Z,32.70
2019-03-23T12:27:03.279Z,33.00
2019-03-23T12:31:14.524Z,36.20
2019-03-23T12:35:25.611Z,39.30
2019-03-23T12:39:36.852Z,41.30
2019-03-23T12:43:49.537Z,40.80
2019-03-23T12:48:01.420Z,41.60
2019-03-23T12:52:13.644Z,41.80
2019-03-23T12:56:24.762Z,41.80
2019-03-23T13:00:39.318Z,43.20
2019-03-23T13:04:51.027Z,44.50
2019-03-23T13:09:02.061Z,47.40
2019-03-23T13:13:16.919Z,48.80
2019-03-23T13:17:28.079Z,48.50
2019-03-23T13:21:39.315Z,51.20
2019-03-23T13:25:52.224Z,51.60
2019-03-23T13:30:02.400Z,49.90
2019-03-23T13:34:14.796Z,52.20
2019-03-23T13:38:25.495Z,52.90
2019-03-23T13:42:36.572Z,52.50
2019-03-23T13:46:47.302Z,53.20
2019-03-23T13:50:58.486Z,53.70
2019-03-23T13:55:13.832Z,53.40
2019-03-23T13:59:25.146Z,54.50
2019-03-23T14:03:37.383Z,55.60
2019-03-23T14:07:48.495Z,57.00
2019-03-23T14:12:00.364Z,57.50
2019-03-23T14:16:13.125Z,57.60
2019-03-23T14:20:24.288Z,57.50
2019-03-23T14:24:35.341Z,57.50
2019-03-23T14:28:46.567Z,57.40
2019-03-23T14:32:57.688Z,58.20
2019-03-23T14:37:10.287Z,58.60
2019-03-23T14:41:20.495Z,59.50
2019-03-23T14:45:31.612Z,60.10
2019-03-23T14:49:42.693Z,60.70
2019-03-23T14:53:53.759Z,61.80
2019-03-23T14:58:04.998Z,62.20
2019-03-23T15:02:16.132Z,62.20
2019-03-23T15:06:27.146Z,62.60
2019-03-23T15:10:38.440Z,63.10
2019-03-23T15:14:49.668Z,63.90
2019-03-23T15:19:00.706Z,64.00
2019-03-23T15:23:11.714Z,63.80
2019-03-23T15:27:22.782Z,64.20
2019-03-23T15:31:34.331Z,64.80
2019-03-23T15:35:46.448Z,65.50
2019-03-23T15:39:57.695Z,65.80
2019-03-23T15:44:09.287Z,66.20
2019-03-23T15:48:21.479Z,66.80
2019-03-23T15:52:32.687Z,65.90
2019-03-23T15:56:45.420Z,65.90
2019-03-23T16:00:57.766Z,67.10
2019-03-23T16:05:09.565Z,67.70
2019-03-23T16:09:21.032Z,68.20
2019-03-23T16:13:31.938Z,68.40
2019-03-23T16:17:43.383Z,68.90
2019-03-23T16:21:54.680Z,69.80
2019-03-23T16:26:06.409Z,69.70
2019-03-23T16:30:20.734Z,69.90
2019-03-23T16:34:32.623Z,70.10
2019-03-23T16:38:44.896Z,70.40
2019-03-23T16:42:56.618Z,70.20
2019-03-23T16:47:07.682Z,70.70
2019-03-23T16:51:18.970Z,71.90
2019-03-23T16:55:31.672Z,72.80
2019-03-23T16:59:44.452Z,73.50
2019-03-23T17:03:54.697Z,74.30
2019-03-23T17:08:06.553Z,75.10
2019-03-23T17:12:18.455Z,75.90
2019-03-23T17:16:31.031Z,76.50
2019-03-23T17:20:42.225Z,77.00
2019-03-23T17:24:53.307Z,77.50
2019-03-23T17:29:04.505Z,78.00
2019-03-23T17:33:15.242Z,78.50
2019-03-23T17:37:26.927Z,79.20
2019-03-23T17:41:38.191Z,79.60
2019-03-23T17:45:49.416Z,80.30
2019-03-23T17:50:00.802Z,80.70
2019-03-23T17:54:11.930Z,81.70
2019-03-23T17:58:23.690Z,81.40
2019-03-23T18:02:34.910Z,82.60
2019-03-23T18:06:46.087Z,82.20
2019-03-23T18:10:57.246Z,82.70
2019-03-23T18:15:09.797Z,83.00
2019-03-23T18:19:20.865Z,83.40
2019-03-23T18:23:32.224Z,83.60
2019-03-23T18:27:43.344Z,83.70
2019-03-23T18:31:54.411Z,84.20
2019-03-23T18:36:04.539Z,84.50
2019-03-23T18:40:16.151Z,84.90
2019-03-23T18:44:27.420Z,85.90
2019-03-23T18:48:38.568Z,85.20
2019-03-23T18:52:49.599Z,85.30
2019-03-23T18:57:00.604Z,85.70
2019-03-23T19:01:12.411Z,86.20
2019-03-23T19:05:25.656Z,86.70
2019-03-23T19:09:37.074Z,87.00
2019-03-23T19:13:48.080Z,87.30
2019-03-23T19:18:02.049Z,87.00
2019-03-23T19:22:13.203Z,86.80
2019-03-23T19:26:24.263Z,87.30
2019-03-23T19:30:37.059Z,87.50
2019-03-23T19:34:51.086Z,87.80
2019-03-23T19:39:04.881Z,88.20
2019-03-23T19:43:17.502Z,88.60
2019-03-23T19:47:28.608Z,89.00
2019-03-23T19:51:39.886Z,89.30
2019-03-23T19:55:51.969Z,89.50
2019-03-23T20:00:03.590Z,89.70
2019-03-23T20:04:16.191Z,89.90
2019-03-23T20:08:28.840Z,90.00
2019-03-23T20:12:41.135Z,90.10
2019-03-23T20:16:52.230Z,90.40
2019-03-23T20:21:03.517Z,90.50
2019-03-23T20:25:14.802Z,90.60
2019-03-23T20:29:26.164Z,90.60
2019-03-23T20:33:37.503Z,90.70
2019-03-23T20:37:48.664Z,90.80
2019-03-23T20:41:59.775Z,90.90
2019-03-23T20:46:10.001Z,91.10
2019-03-23T20:50:22.690Z,91.10
2019-03-23T20:54:42.222Z,91.20
2019-03-23T20:58:54.775Z,91.00
2019-03-23T21:03:05.674Z,91.20
2019-03-23T21:07:16.759Z,91.30
2019-03-23T21:11:29.548Z,91.40
2019-03-23T21:15:40.611Z,91.60
2019-03-23T21:19:51.631Z,91.70
2019-03-23T21:24:02.761Z,91.80
2019-03-23T21:28:13.877Z,91.80
2019-03-23T21:32:25.100Z,91.80
2019-03-23T21:36:37.820Z,92.20
2019-03-23T21:40:50.561Z,91.90
2019-03-23T21:45:02.149Z,92.00
2019-03-23T21:49:13.262Z,92.10
2019-03-23T21:53:26.395Z,92.10
2019-03-23T21:57:37.425Z,92.20
2019-03-23T22:01:48.384Z,92.30
2019-03-23T22:06:00.286Z,92.40
2019-03-23T22:10:11.519Z,92.40
2019-03-23T22:14:22.561Z,92.20
2019-03-23T22:18:33.689Z,92.10
2019-03-23T22:22:46.447Z,92.10
2019-03-23T22:26:57.458Z,92.10
2019-03-23T22:31:08.600Z,92.10
2019-03-23T22:35:20.214Z,92.10
2019-03-23T22:39:33.050Z,92.10
2019-03-23T22:43:45.628Z,92.00
2019-03-23T22:47:56.655Z,91.90
2019-03-23T22:52:07.693Z,91.80
2019-03-23T22:56:18.893Z,91.90
2019-03-23T23:00:34.479Z,91.80
2019-03-23T23:04:47.146Z,91.80
2019-03-23T23:08:58.330Z,91.80
2019-03-23T23:13:10.520Z,91.80
2019-03-23T23:17:21.529Z,91.80
2019-03-23T23:21:32.699Z,91.80
2019-03-23T23:25:46.019Z,92.30
2019-03-23T23:29:57.047Z,91.90
2019-03-23T23:34:08.603Z,91.90
2019-03-23T23:38:21.202Z,92.00
2019-03-23T23:42:33.794Z,92.00
2019-03-23T23:46:45.036Z,91.90
2019-03-23T23:50:57.684Z,91.90
2019-03-23T23:55:10.304Z,91.80
2019-03-23T23:59:23.302Z,91.80
